LRTM - TARGU MURES / TRANSILVANIA - TARGU MURES

Compiled: 11:37:00 on 21/04/2018

Latest METAR/SPECI Reports

METAR LRTM 211130Z 26006KT 220V300 CAVOK 21/05 Q1020=

Previous reports

METAR LRTM 211100Z 28009KT 250V330 CAVOK 21/05 Q1021=
METAR LRTM 211030Z 23004KT 180V280 CAVOK 19/06 Q1021=
METAR LRTM 211000Z 23004KT 170V290 CAVOK 19/05 Q1021=
METAR LRTM 210930Z 23005KT 160V310 CAVOK 18/06 Q1022=

Latest TAF report

TAF LRTM 211100Z 2112/2121 VRB04KT CAVOK=

Valid WARNINGS

No valid warnings for LRTM